createdAt,value
2019-03-19T00:00:11.445Z,2.07
2019-03-19T00:02:40.866Z,2.03
2019-03-19T00:05:10.534Z,1.80
2019-03-19T00:07:39.962Z,1.80
2019-03-19T00:10:09.686Z,2.10
2019-03-19T00:12:39.136Z,1.77
2019-03-19T00:15:09.050Z,2.20
2019-03-19T00:17:38.573Z,1.77
2019-03-19T00:20:08.683Z,2.47
2019-03-19T00:22:38.280Z,2.10
2019-03-19T00:25:07.858Z,2.23
2019-03-19T00:27:37.342Z,1.77
2019-03-19T00:30:07.888Z,2.30
2019-03-19T00:32:37.431Z,1.93
2019-03-19T00:35:07.203Z,2.13
2019-03-19T00:37:36.782Z,2.37
2019-03-19T00:40:06.491Z,2.07
2019-03-19T00:42:36.097Z,2.00
2019-03-19T00:45:05.823Z,1.90
2019-03-19T00:47:35.252Z,1.80
2019-03-19T00:50:05.227Z,1.97
2019-03-19T00:52:34.682Z,1.70
2019-03-19T00:55:04.377Z,1.80
2019-03-19T00:57:33.959Z,2.03
2019-03-19T01:00:03.729Z,2.50
2019-03-19T01:02:33.205Z,1.70
2019-03-19T01:05:02.670Z,1.87
2019-03-19T01:07:32.145Z,2.17
2019-03-19T01:10:01.557Z,1.97
2019-03-19T01:12:30.971Z,2.03
2019-03-19T01:15:00.377Z,1.70
2019-03-19T01:17:29.825Z,2.30
2019-03-19T01:19:59.289Z,1.90
2019-03-19T01:22:28.714Z,1.67
2019-03-19T01:24:58.113Z,1.97
2019-03-19T01:27:27.805Z,1.97
2019-03-19T01:29:57.234Z,2.00
2019-03-19T01:32:26.819Z,2.10
2019-03-19T01:34:56.241Z,1.80
2019-03-19T01:37:25.665Z,2.13
2019-03-19T01:39:55.100Z,1.93
2019-03-19T01:42:26.425Z,1.67
2019-03-19T01:44:55.600Z,2.07
2019-03-19T01:47:25.141Z,1.97
2019-03-19T01:49:54.586Z,1.87
2019-03-19T01:52:24.072Z,2.07
2019-03-19T01:54:53.574Z,1.90
2019-03-19T01:57:22.978Z,1.83
2019-03-19T01:59:52.406Z,1.80
2019-03-19T02:02:21.804Z,1.70
2019-03-19T02:04:51.302Z,1.93
2019-03-19T02:07:20.723Z,2.00
2019-03-19T02:09:50.163Z,1.40
2019-03-19T02:12:19.643Z,1.67
2019-03-19T02:14:49.074Z,2.00
2019-03-19T02:17:18.508Z,2.03
2019-03-19T02:19:47.954Z,1.87
2019-03-19T02:22:17.375Z,2.30
2019-03-19T02:24:46.817Z,2.30
2019-03-19T02:27:16.283Z,2.47
2019-03-19T02:29:45.729Z,2.00
2019-03-19T02:32:15.205Z,2.40
2019-03-19T02:34:44.668Z,2.00
2019-03-19T02:37:14.088Z,2.50
2019-03-19T02:39:43.634Z,2.30
2019-03-19T02:42:13.120Z,2.13
2019-03-19T02:44:42.555Z,1.70
2019-03-19T02:47:12.030Z,2.07
2019-03-19T02:49:41.460Z,2.00
2019-03-19T02:52:11.006Z,2.33
2019-03-19T02:54:40.528Z,1.60
2019-03-19T02:57:10.006Z,2.23
2019-03-19T02:59:39.536Z,2.13
2019-03-19T03:02:09.097Z,2.07
2019-03-19T03:04:38.556Z,1.83
2019-03-19T03:07:08.057Z,2.17
2019-03-19T03:09:37.566Z,2.33
2019-03-19T03:12:06.959Z,1.50
2019-03-19T03:14:36.373Z,2.37
2019-03-19T03:17:05.867Z,2.33
2019-03-19T03:19:35.294Z,2.03
2019-03-19T03:22:04.706Z,1.97
2019-03-19T03:24:34.188Z,2.33
2019-03-19T03:27:03.733Z,1.80
2019-03-19T03:29:33.211Z,1.93
2019-03-19T03:32:02.587Z,2.00
2019-03-19T03:34:32.191Z,1.83
2019-03-19T03:37:01.611Z,3.17
2019-03-19T03:39:31.015Z,2.40
2019-03-19T03:42:00.432Z,2.07
2019-03-19T03:44:29.908Z,1.87
2019-03-19T03:46:59.377Z,2.33
2019-03-19T03:49:29.222Z,2.27
2019-03-19T03:51:58.640Z,2.23
2019-03-19T03:54:28.119Z,2.00
2019-03-19T03:57:02.470Z,2.23
2019-03-19T03:59:28.723Z,2.10
2019-03-19T04:01:58.376Z,1.70
2019-03-19T04:04:28.164Z,2.40
2019-03-19T04:06:57.711Z,2.10
2019-03-19T04:09:27.137Z,2.47
2019-03-19T04:11:56.532Z,1.60
2019-03-19T04:14:26.119Z,1.90
2019-03-19T04:16:55.612Z,2.43
2019-03-19T04:19:25.015Z,1.90
2019-03-19T04:21:54.427Z,2.60
2019-03-19T04:24:23.857Z,2.10
2019-03-19T04:26:53.264Z,2.10
2019-03-19T04:29:22.867Z,2.00
2019-03-19T04:31:52.359Z,2.17
2019-03-19T04:34:21.870Z,1.67
2019-03-19T04:36:51.326Z,2.07
2019-03-19T04:39:20.742Z,2.43
2019-03-19T04:41:50.151Z,2.43
2019-03-19T04:44:19.624Z,2.13
2019-03-19T04:46:49.081Z,1.97
2019-03-19T04:49:18.497Z,1.73
2019-03-19T04:51:47.910Z,2.10
2019-03-19T04:54:17.345Z,2.17
2019-03-19T04:56:46.804Z,2.63
2019-03-19T04:59:16.260Z,2.57
2019-03-19T05:01:45.689Z,1.70
2019-03-19T05:04:15.122Z,2.20
2019-03-19T05:06:44.578Z,2.10
2019-03-19T05:09:14.058Z,2.30
2019-03-19T05:11:43.446Z,1.93
2019-03-19T05:14:12.861Z,2.30
2019-03-19T05:16:42.264Z,2.27
2019-03-19T05:19:11.686Z,1.87
2019-03-19T05:21:41.070Z,1.90
2019-03-19T05:24:10.488Z,3.30
2019-03-19T05:26:39.968Z,1.93
2019-03-19T05:29:09.396Z,2.27
2019-03-19T05:31:38.784Z,2.47
2019-03-19T05:34:08.222Z,2.43
2019-03-19T05:36:37.671Z,3.10
2019-03-19T05:39:07.876Z,2.27
2019-03-19T05:41:37.291Z,2.00
2019-03-19T05:44:06.720Z,2.37
2019-03-19T05:46:36.161Z,2.40
2019-03-19T05:49:05.591Z,3.17
2019-03-19T05:51:35.192Z,1.87
2019-03-19T05:54:04.792Z,2.07
2019-03-19T05:56:34.201Z,1.90
2019-03-19T05:59:03.610Z,2.13
2019-03-19T06:01:33.051Z,2.73
2019-03-19T06:04:02.531Z,2.53
2019-03-19T06:06:32.212Z,2.03
2019-03-19T06:09:01.663Z,2.33
2019-03-19T06:11:31.091Z,2.33
2019-03-19T06:14:00.495Z,1.93
2019-03-19T06:16:30.134Z,1.90
2019-03-19T06:18:59.566Z,2.40
2019-03-19T06:21:29.095Z,2.10
2019-03-19T06:23:58.545Z,2.00
2019-03-19T06:26:28.053Z,2.10
2019-03-19T06:28:57.545Z,2.30
2019-03-19T06:31:27.186Z,2.57
2019-03-19T06:33:56.598Z,2.63
2019-03-19T06:36:26.239Z,3.17
2019-03-19T06:38:55.759Z,1.60
2019-03-19T06:41:25.305Z,2.13
2019-03-19T06:43:54.764Z,3.10
2019-03-19T06:46:24.198Z,1.97
2019-03-19T06:48:53.592Z,2.43
2019-03-19T06:51:23.021Z,2.73
2019-03-19T06:53:52.406Z,2.37
2019-03-19T06:56:21.905Z,2.40
2019-03-19T06:58:51.358Z,2.10
2019-03-19T07:01:20.812Z,2.30
2019-03-19T07:03:50.330Z,2.90
2019-03-19T07:06:19.762Z,2.33
2019-03-19T07:08:49.208Z,2.97
2019-03-19T07:11:18.640Z,2.07
2019-03-19T07:13:48.087Z,2.83
2019-03-19T07:16:17.547Z,1.90
2019-03-19T07:18:46.994Z,2.60
2019-03-19T07:21:16.424Z,2.90
2019-03-19T07:23:45.829Z,2.90
2019-03-19T07:26:15.314Z,2.60
2019-03-19T07:28:44.940Z,3.00
2019-03-19T07:31:14.349Z,2.70
2019-03-19T07:33:43.764Z,2.57
2019-03-19T07:36:13.259Z,2.80
2019-03-19T07:38:42.660Z,2.57
2019-03-19T07:41:12.147Z,2.60
2019-03-19T07:43:41.665Z,2.60
2019-03-19T07:46:11.383Z,2.77
2019-03-19T07:48:40.848Z,3.13
2019-03-19T07:51:10.332Z,2.80
2019-03-19T07:53:39.879Z,2.97
2019-03-19T07:56:09.382Z,2.70
2019-03-19T07:58:45.283Z,2.50
2019-03-19T08:01:10.093Z,2.07
2019-03-19T08:03:39.573Z,2.67
2019-03-19T08:06:09.047Z,2.90
2019-03-19T08:08:38.523Z,2.50
2019-03-19T08:11:08.105Z,2.67
2019-03-19T08:13:37.548Z,2.40
2019-03-19T08:16:07.015Z,2.67
2019-03-19T08:18:36.471Z,4.17
2019-03-19T08:21:05.991Z,2.77
2019-03-19T08:23:35.659Z,2.40
2019-03-19T08:26:05.170Z,2.83
2019-03-19T08:28:34.679Z,2.30
2019-03-19T08:31:04.243Z,3.33
2019-03-19T08:33:33.898Z,2.83
2019-03-19T08:36:09.411Z,3.00
2019-03-19T08:38:34.528Z,2.37
2019-03-19T08:41:04.132Z,2.93
2019-03-19T08:43:33.676Z,4.10
2019-03-19T08:46:03.268Z,2.97
2019-03-19T08:48:32.846Z,3.27
2019-03-19T08:51:02.297Z,3.30
2019-03-19T08:53:31.930Z,2.97
2019-03-19T08:56:01.504Z,2.33
2019-03-19T08:58:31.039Z,2.30
2019-03-19T09:01:00.467Z,2.90
2019-03-19T09:03:29.916Z,2.70
2019-03-19T09:05:59.433Z,2.40
2019-03-19T09:08:28.861Z,2.53
2019-03-19T09:10:58.366Z,2.70
2019-03-19T09:13:30.226Z,3.27
2019-03-19T09:15:59.767Z,2.10
2019-03-19T09:18:29.347Z,3.00
2019-03-19T09:20:58.843Z,2.27
2019-03-19T09:23:28.502Z,2.20
2019-03-19T09:25:58.367Z,2.60
2019-03-19T09:28:27.997Z,2.87
2019-03-19T09:30:57.450Z,2.60
2019-03-19T09:33:26.919Z,2.10
2019-03-19T09:35:56.391Z,2.33
2019-03-19T09:38:25.933Z,3.57
2019-03-19T09:40:55.527Z,2.37
2019-03-19T09:43:25.109Z,2.20
2019-03-19T09:45:54.583Z,2.93
2019-03-19T09:48:23.986Z,2.07
2019-03-19T09:50:53.525Z,2.40
2019-03-19T09:53:23.029Z,1.97
2019-03-19T09:55:52.539Z,2.10
2019-03-19T09:58:22.070Z,2.37
2019-03-19T10:00:51.600Z,2.47
2019-03-19T10:03:21.194Z,1.83
2019-03-19T10:05:50.687Z,2.30
2019-03-19T10:08:20.307Z,1.80
2019-03-19T10:10:52.247Z,2.10
2019-03-19T10:13:20.962Z,2.07
2019-03-19T10:15:50.414Z,1.97
2019-03-19T10:18:20.098Z,1.87
2019-03-19T10:20:49.638Z,1.80
2019-03-19T10:23:19.186Z,1.67
2019-03-19T10:25:48.770Z,2.03
2019-03-19T10:28:18.263Z,2.40
2019-03-19T10:30:47.975Z,1.90
2019-03-19T10:33:17.455Z,1.93
2019-03-19T10:35:47.314Z,2.57
2019-03-19T10:38:16.820Z,2.53
2019-03-19T10:40:46.327Z,1.70
2019-03-19T10:43:15.767Z,2.17
2019-03-19T10:45:45.168Z,1.50
2019-03-19T10:48:14.691Z,1.53
2019-03-19T10:50:44.229Z,1.50
2019-03-19T10:53:13.761Z,1.63
2019-03-19T10:55:43.205Z,1.77
2019-03-19T10:58:12.943Z,2.00
2019-03-19T11:00:42.542Z,1.70
2019-03-19T11:03:12.083Z,1.80
2019-03-19T11:05:41.649Z,1.97
2019-03-19T11:08:11.096Z,2.00
2019-03-19T11:10:40.507Z,2.43
2019-03-19T11:13:10.115Z,1.80
2019-03-19T11:15:39.715Z,1.87
2019-03-19T11:18:09.159Z,1.60
2019-03-19T11:20:38.589Z,1.50
2019-03-19T11:23:08.159Z,1.93
2019-03-19T11:25:37.569Z,2.20
2019-03-19T11:28:07.057Z,1.60
2019-03-19T11:30:36.551Z,1.63
2019-03-19T11:33:06.190Z,2.03
2019-03-19T11:35:35.881Z,1.80
2019-03-19T11:38:05.667Z,2.53
2019-03-19T11:40:35.237Z,1.90
2019-03-19T11:43:05.173Z,1.87
2019-03-19T11:45:34.742Z,2.27
2019-03-19T11:48:04.523Z,2.50
2019-03-19T11:50:34.357Z,2.00
2019-03-19T11:53:04.184Z,1.80
2019-03-19T11:55:33.771Z,1.53
2019-03-19T11:58:03.284Z,2.60
2019-03-19T12:00:38.334Z,2.00
2019-03-19T12:03:15.275Z,2.00
2019-03-19T12:05:39.034Z,2.23
2019-03-19T12:08:08.502Z,2.83
2019-03-19T12:10:38.083Z,2.17
2019-03-19T12:13:07.752Z,2.40
2019-03-19T12:15:37.260Z,1.70
2019-03-19T12:18:06.950Z,1.70
2019-03-19T12:20:36.682Z,2.40
2019-03-19T12:23:06.336Z,2.63
2019-03-19T12:25:35.910Z,1.63
2019-03-19T12:28:05.854Z,1.40
2019-03-19T12:30:35.416Z,1.60
2019-03-19T12:33:05.440Z,1.70
2019-03-19T12:35:34.990Z,1.27
2019-03-19T12:38:04.549Z,1.40
2019-03-19T12:40:37.151Z,1.70
2019-03-19T12:43:05.552Z,1.73
2019-03-19T12:45:35.087Z,1.97
2019-03-19T12:48:05.071Z,1.90
2019-03-19T12:50:34.533Z,1.60
2019-03-19T12:53:04.141Z,2.27
2019-03-19T12:55:33.691Z,2.00
2019-03-19T12:58:03.155Z,2.00
2019-03-19T13:00:34.510Z,1.70
2019-03-19T13:03:04.187Z,2.03
2019-03-19T13:05:33.732Z,1.60
2019-03-19T13:08:03.293Z,1.50
2019-03-19T13:10:32.871Z,1.37
2019-03-19T13:13:02.435Z,1.33
2019-03-19T13:15:31.855Z,2.00
2019-03-19T13:18:01.451Z,1.90
2019-03-19T13:20:30.898Z,1.80
2019-03-19T13:23:00.337Z,1.43
2019-03-19T13:25:29.832Z,1.80
2019-03-19T13:27:59.585Z,1.80
2019-03-19T13:30:29.118Z,1.63
2019-03-19T13:32:58.550Z,1.57
2019-03-19T13:35:28.070Z,1.43
2019-03-19T13:37:57.675Z,1.50
2019-03-19T13:40:27.505Z,1.43
2019-03-19T13:42:56.938Z,1.47
2019-03-19T13:45:26.487Z,1.30
2019-03-19T13:47:56.026Z,1.47
2019-03-19T13:50:25.780Z,2.07
2019-03-19T13:52:55.206Z,1.60
2019-03-19T13:55:24.743Z,1.50
2019-03-19T13:57:54.197Z,1.73
2019-03-19T14:00:23.695Z,1.10
2019-03-19T14:02:53.314Z,1.60
2019-03-19T14:05:22.806Z,1.30
2019-03-19T14:07:52.342Z,1.10
2019-03-19T14:10:22.082Z,1.13
2019-03-19T14:12:51.573Z,1.30
2019-03-19T14:15:21.006Z,1.70
2019-03-19T14:17:50.523Z,1.40
2019-03-19T14:20:20.302Z,1.33
2019-03-19T14:22:49.977Z,1.60
2019-03-19T14:25:19.528Z,1.97
2019-03-19T14:27:48.942Z,1.40
2019-03-19T14:30:18.609Z,1.80
2019-03-19T14:32:48.247Z,1.50
2019-03-19T14:35:17.897Z,1.37
2019-03-19T14:37:47.577Z,1.97
2019-03-19T14:40:17.491Z,1.27
2019-03-19T14:42:47.097Z,3.67
2019-03-19T14:45:17.210Z,1.80
2019-03-19T14:47:46.819Z,2.40
2019-03-19T14:50:16.369Z,1.40
2019-03-19T14:52:45.957Z,1.73
2019-03-19T14:55:15.587Z,1.33
2019-03-19T14:57:45.231Z,1.83
2019-03-19T15:00:15.574Z,1.97
2019-03-19T15:02:45.081Z,1.77
2019-03-19T15:05:14.788Z,1.80
2019-03-19T15:07:44.455Z,1.60
2019-03-19T15:10:15.177Z,1.63
2019-03-19T15:12:44.735Z,1.40
2019-03-19T15:15:15.437Z,1.90
2019-03-19T15:17:45.098Z,1.40
2019-03-19T15:20:16.514Z,1.90
2019-03-19T15:22:46.248Z,1.50
2019-03-19T15:25:15.868Z,2.43
2019-03-19T15:27:45.498Z,1.60
2019-03-19T15:30:15.298Z,2.03
2019-03-19T15:32:44.822Z,1.50
2019-03-19T15:35:14.570Z,1.30
2019-03-19T15:37:44.239Z,1.70
2019-03-19T15:40:13.942Z,2.27
2019-03-19T15:42:43.662Z,1.60
2019-03-19T15:45:13.262Z,1.73
2019-03-19T15:47:42.868Z,1.53
2019-03-19T15:50:13.746Z,1.57
2019-03-19T15:52:43.755Z,1.80
2019-03-19T15:55:13.502Z,1.43
2019-03-19T15:57:43.089Z,2.10
2019-03-19T16:00:14.154Z,1.80
2019-03-19T16:02:44.044Z,1.50
2019-03-19T16:05:13.643Z,1.63
2019-03-19T16:07:43.267Z,1.97
2019-03-19T16:10:12.916Z,1.70
2019-03-19T16:12:42.447Z,1.80
2019-03-19T16:15:12.762Z,1.87
2019-03-19T16:17:42.338Z,1.93
2019-03-19T16:20:13.302Z,1.40
2019-03-19T16:22:42.951Z,1.60
2019-03-19T16:25:12.754Z,1.97
2019-03-19T16:27:42.303Z,1.53
2019-03-19T16:30:12.876Z,1.37
2019-03-19T16:32:42.550Z,1.63
2019-03-19T16:35:12.732Z,1.60
2019-03-19T16:37:42.344Z,1.97
2019-03-19T16:40:14.540Z,2.17
2019-03-19T16:42:44.119Z,1.57
2019-03-19T16:45:13.718Z,2.20
2019-03-19T16:47:43.190Z,2.00
2019-03-19T16:50:13.601Z,1.87
2019-03-19T16:52:43.070Z,1.70
2019-03-19T16:55:12.998Z,3.40
2019-03-19T16:57:42.497Z,2.83
2019-03-19T17:00:16.412Z,2.93
2019-03-19T17:02:46.141Z,2.50
2019-03-19T17:05:16.184Z,2.10
2019-03-19T17:07:45.712Z,1.80
2019-03-19T17:10:15.810Z,1.87
2019-03-19T17:12:45.473Z,2.00
2019-03-19T17:15:15.559Z,2.03
2019-03-19T17:17:45.133Z,2.30
2019-03-19T17:20:14.826Z,2.10
2019-03-19T17:22:44.259Z,1.90
2019-03-19T17:25:14.644Z,1.63
2019-03-19T17:27:44.139Z,2.20
2019-03-19T17:30:18.556Z,1.90
2019-03-19T17:32:48.211Z,2.23
2019-03-19T17:35:17.631Z,2.70
2019-03-19T17:37:47.115Z,1.87
2019-03-19T17:40:16.971Z,2.03
2019-03-19T17:42:46.471Z,1.67
2019-03-19T17:45:15.909Z,2.43
2019-03-19T17:47:45.611Z,2.60
2019-03-19T17:50:16.767Z,2.50
2019-03-19T17:52:46.348Z,3.03
2019-03-19T17:55:15.880Z,3.40
2019-03-19T17:57:45.447Z,2.10
2019-03-19T18:00:19.728Z,2.33
2019-03-19T18:02:49.245Z,2.43
2019-03-19T18:05:18.778Z,2.70
2019-03-19T18:07:48.325Z,2.27
2019-03-19T18:10:17.954Z,2.07
2019-03-19T18:12:47.475Z,2.27
2019-03-19T18:15:16.991Z,2.60
2019-03-19T18:17:46.485Z,2.83
2019-03-19T18:20:16.237Z,3.00
2019-03-19T18:22:45.898Z,2.80
2019-03-19T18:25:15.354Z,3.00
2019-03-19T18:27:44.873Z,2.83
2019-03-19T18:30:14.971Z,2.70
2019-03-19T18:32:44.390Z,2.53
2019-03-19T18:35:13.824Z,9.33
2019-03-19T18:37:43.276Z,3.30
2019-03-19T18:40:12.883Z,2.80
2019-03-19T18:42:42.463Z,2.60
2019-03-19T18:45:12.030Z,3.40
2019-03-19T18:47:41.463Z,3.37
2019-03-19T18:50:12.279Z,2.63
2019-03-19T18:52:41.743Z,2.37
2019-03-19T18:55:11.352Z,2.87
2019-03-19T18:57:41.730Z,3.23
2019-03-19T19:00:13.342Z,2.27
2019-03-19T19:02:49.866Z,2.63
2019-03-19T19:05:14.152Z,2.50
2019-03-19T19:07:43.824Z,2.90
2019-03-19T19:10:13.551Z,3.53
2019-03-19T19:12:43.091Z,4.80
2019-03-19T19:15:13.842Z,3.60
2019-03-19T19:17:43.526Z,5.77
2019-03-19T19:20:13.197Z,6.23
2019-03-19T19:22:42.676Z,4.57
2019-03-19T19:25:13.132Z,3.47
2019-03-19T19:27:42.549Z,3.40
2019-03-19T19:30:14.359Z,3.30
2019-03-19T19:32:43.873Z,3.03
2019-03-19T19:35:13.329Z,3.20
2019-03-19T19:37:42.779Z,3.67
2019-03-19T19:40:13.333Z,3.10
2019-03-19T19:42:42.843Z,3.13
2019-03-19T19:45:12.629Z,3.77
2019-03-19T19:47:42.143Z,4.10
2019-03-19T19:50:12.895Z,3.93
2019-03-19T19:52:42.579Z,3.40
2019-03-19T19:55:12.207Z,3.83
2019-03-19T19:57:41.713Z,3.73
2019-03-19T20:00:13.348Z,3.57
2019-03-19T20:02:42.961Z,4.30
2019-03-19T20:05:12.587Z,3.17
2019-03-19T20:07:42.041Z,3.83
2019-03-19T20:10:13.678Z,3.33
2019-03-19T20:12:43.107Z,3.20
2019-03-19T20:15:12.535Z,3.80
2019-03-19T20:17:42.193Z,3.97
2019-03-19T20:20:13.408Z,4.60
2019-03-19T20:22:44.667Z,3.97
2019-03-19T20:25:14.114Z,4.83
2019-03-19T20:27:43.632Z,4.40
2019-03-19T20:30:15.338Z,3.93
2019-03-19T20:32:44.829Z,3.83
2019-03-19T20:35:14.346Z,3.63
2019-03-19T20:37:43.808Z,4.23
2019-03-19T20:40:13.586Z,4.90
2019-03-19T20:42:43.137Z,4.63
2019-03-19T20:45:12.880Z,4.20
2019-03-19T20:47:42.401Z,4.43
2019-03-19T20:50:17.310Z,4.33
2019-03-19T20:52:46.751Z,5.00
2019-03-19T20:55:16.193Z,4.37
2019-03-19T20:57:45.714Z,4.20
2019-03-19T21:00:15.937Z,4.60
2019-03-19T21:02:45.661Z,5.10
2019-03-19T21:05:16.105Z,6.40
2019-03-19T21:07:45.843Z,5.33
2019-03-19T21:10:16.873Z,7.20
2019-03-19T21:12:46.651Z,7.27
2019-03-19T21:15:20.748Z,7.27
2019-03-19T21:17:50.611Z,9.50
2019-03-19T21:20:20.783Z,9.53
2019-03-19T21:22:50.412Z,8.97
2019-03-19T21:25:20.165Z,7.70
2019-03-19T21:27:51.053Z,7.20
2019-03-19T21:30:22.738Z,9.97
2019-03-19T21:32:52.344Z,6.97
2019-03-19T21:35:22.172Z,7.20
2019-03-19T21:37:51.939Z,8.43
2019-03-19T21:40:23.225Z,6.87
2019-03-19T21:42:52.720Z,7.47
2019-03-19T21:45:22.391Z,7.97
2019-03-19T21:47:52.155Z,7.13
2019-03-19T21:50:21.824Z,6.50
2019-03-19T21:52:51.469Z,7.23
2019-03-19T21:55:21.026Z,7.10
2019-03-19T21:57:50.584Z,7.00
2019-03-19T22:00:20.078Z,7.97
2019-03-19T22:02:49.588Z,6.80
2019-03-19T22:05:19.098Z,6.70
2019-03-19T22:07:48.676Z,6.37
2019-03-19T22:10:18.330Z,5.97
2019-03-19T22:12:49.387Z,5.77
2019-03-19T22:15:19.200Z,5.90
2019-03-19T22:17:48.895Z,6.80
2019-03-19T22:20:18.416Z,6.00
2019-03-19T22:22:48.019Z,7.37
2019-03-19T22:25:17.548Z,6.07
2019-03-19T22:27:47.028Z,6.53
2019-03-19T22:30:16.703Z,5.50
2019-03-19T22:32:46.458Z,6.00
2019-03-19T22:35:16.171Z,5.73
2019-03-19T22:37:45.666Z,6.60
2019-03-19T22:40:15.368Z,5.70
2019-03-19T22:42:44.854Z,5.27
2019-03-19T22:45:14.584Z,5.60
2019-03-19T22:47:44.046Z,5.57
2019-03-19T22:50:13.849Z,6.07
2019-03-19T22:52:43.401Z,5.67
2019-03-19T22:55:13.335Z,6.57
2019-03-19T22:57:42.969Z,5.77
2019-03-19T23:00:23.064Z,5.23
2019-03-19T23:02:52.610Z,5.43
2019-03-19T23:05:22.169Z,5.80
2019-03-19T23:07:51.769Z,5.37
2019-03-19T23:10:21.197Z,5.70
2019-03-19T23:12:50.707Z,5.63
2019-03-19T23:15:20.215Z,5.63
2019-03-19T23:17:49.632Z,5.70
2019-03-19T23:20:19.306Z,5.67
2019-03-19T23:22:48.906Z,4.83
2019-03-19T23:25:18.574Z,5.33
2019-03-19T23:27:48.043Z,4.83
2019-03-19T23:30:17.618Z,5.13
2019-03-19T23:32:47.201Z,4.50
2019-03-19T23:35:16.618Z,5.13
2019-03-19T23:37:46.049Z,4.93
2019-03-19T23:40:15.970Z,4.60
2019-03-19T23:42:45.823Z,4.83
2019-03-19T23:45:16.158Z,5.00
2019-03-19T23:47:45.682Z,4.93
2019-03-19T23:50:15.149Z,4.93
2019-03-19T23:52:44.620Z,4.93
2019-03-19T23:55:14.064Z,4.83
2019-03-19T23:57:43.530Z,4.70
